Time,TemperatureF,DewpointF,PressureIn,WindDirection,WindDirectionDegrees,WindSpeedMPH,WindSpeedGustMPH,Humidity,HourlyPrecipIn,Conditions,Clouds,dailyrainin,SoftwareType,DateUTC
2013-06-08 00:00:00,59.0,34.7,29.94,East,90,0.0,0.0,40,0.00,,,0.00,meteohub,2013-06-08 04:00:00,
2013-06-08 00:01:00,59.0,34.7,29.94,East,90,0.0,0.0,40,0.00,,,0.00,meteohub,2013-06-08 04:01:00,
2013-06-08 00:02:00,58.8,35.2,29.94,East,90,0.0,0.0,41,0.00,,,0.00,meteohub,2013-06-08 04:02:00,
2013-06-08 00:03:00,58.8,35.2,29.94,East,90,0.0,0.0,41,0.00,,,0.00,meteohub,2013-06-08 04:03:00,
2013-06-08 00:04:00,58.8,35.2,29.94,East,90,0.0,0.0,41,0.00,,,0.00,meteohub,2013-06-08 04:04:00,
2013-06-08 00:10:00,58.8,34.5,29.94,East,90,0.0,0.0,40,0.00,,,0.00,meteohub,2013-06-08 04:10:00,
2013-06-08 00:15:00,58.8,34.5,29.97,ESE,112,0.0,0.0,40,0.00,,,0.00,meteohub,2013-06-08 04:15:00,
2013-06-08 00:20:00,58.8,34.5,29.97,ENE,68,0.0,0.0,40,0.00,,,0.00,meteohub,2013-06-08 04:20:00,
2013-06-08 00:25:00,58.6,34.3,29.97,ESE,112,0.0,0.0,40,0.00,,,0.00,meteohub,2013-06-08 04:25:00,
2013-06-08 00:30:00,58.6,34.3,29.97,ESE,112,0.0,0.0,40,0.00,,,0.00,meteohub,2013-06-08 04:30:00,
2013-06-08 00:36:00,58.6,34.3,29.97,SSE,158,0.0,0.0,40,0.00,,,0.00,meteohub,2013-06-08 04:36:00,
2013-06-08 00:41:00,58.5,34.3,29.94,ENE,68,0.0,0.0,40,0.00,,,0.00,meteohub,2013-06-08 04:41:00,
2013-06-08 00:47:00,58.5,34.3,29.94,ENE,68,0.0,0.0,40,0.00,,,0.00,meteohub,2013-06-08 04:47:00,
2013-06-08 00:59:00,58.5,34.3,29.94,East,90,0.0,0.0,40,0.00,,,0.00,meteohub,2013-06-08 04:59:00,
2013-06-08 01:04:00,58.5,33.6,29.94,ENE,68,0.0,0.0,39,0.00,,,0.00,meteohub,2013-06-08 05:04:00,
2013-06-08 01:10:00,58.5,33.6,29.94,East,90,0.0,0.0,39,0.00,,,0.00,meteohub,2013-06-08 05:10:00,
2013-06-08 01:15:00,58.5,33.6,29.94,ENE,68,0.0,0.0,39,0.00,,,0.00,meteohub,2013-06-08 05:15:00,
2013-06-08 01:20:00,58.3,33.4,29.94,ESE,112,0.0,0.0,39,0.00,,,0.00,meteohub,2013-06-08 05:20:00,
2013-06-08 01:25:00,58.3,33.4,29.94,ENE,68,0.0,0.0,39,0.00,,,0.00,meteohub,2013-06-08 05:25:00,
2013-06-08 01:30:00,58.1,33.3,29.97,ESE,112,0.0,0.0,39,0.00,,,0.00,meteohub,2013-06-08 05:30:00,
2013-06-08 01:35:00,58.1,33.3,29.97,ENE,68,0.0,0.0,39,0.00,,,0.00,meteohub,2013-06-08 05:35:00,
2013-06-08 01:41:00,58.1,33.3,29.97,ENE,68,0.0,0.0,39,0.00,,,0.00,meteohub,2013-06-08 05:41:00,
2013-06-08 01:46:00,57.9,33.1,29.97,ESE,112,0.0,0.0,39,0.00,,,0.00,meteohub,2013-06-08 05:46:00,
2013-06-08 01:51:00,57.9,33.1,29.97,East,90,0.0,0.0,39,0.00,,,0.00,meteohub,2013-06-08 05:51:00,
2013-06-08 01:56:00,57.9,33.1,29.97,ESE,112,0.0,3.0,39,0.00,,,0.00,meteohub,2013-06-08 05:56:00,
2013-06-08 02:01:00,57.9,33.1,29.97,ESE,112,0.0,3.0,39,0.00,,,0.00,meteohub,2013-06-08 06:01:00,
2013-06-08 02:07:00,57.9,33.1,29.97,ENE,68,0.0,0.0,39,0.00,,,0.00,meteohub,2013-06-08 06:07:00,
2013-06-08 02:12:00,57.7,32.9,29.97,ESE,112,0.0,0.0,39,0.00,,,0.00,meteohub,2013-06-08 06:12:00,
2013-06-08 02:17:00,57.7,32.9,29.97,ESE,112,0.0,0.0,39,0.00,,,0.00,meteohub,2013-06-08 06:17:00,
2013-06-08 02:22:00,57.7,32.9,29.97,ESE,112,0.0,0.0,39,0.00,,,0.00,meteohub,2013-06-08 06:22:00,
2013-06-08 02:27:00,57.6,32.9,29.94,East,90,0.0,0.0,39,0.00,,,0.00,meteohub,2013-06-08 06:27:00,
2013-06-08 02:32:00,57.6,32.9,29.94,East,90,0.0,0.0,39,0.00,,,0.00,meteohub,2013-06-08 06:32:00,
2013-06-08 02:38:00,57.6,32.9,29.94,ESE,112,0.0,0.0,39,0.00,,,0.00,meteohub,2013-06-08 06:38:00,
2013-06-08 02:43:00,57.6,32.9,29.94,ESE,112,0.0,0.0,39,0.00,,,0.00,meteohub,2013-06-08 06:43:00,
2013-06-08 02:56:00,57.6,32.9,29.97,ENE,68,0.0,0.0,39,0.00,,,0.00,meteohub,2013-06-08 06:56:00,
2013-06-08 03:01:00,57.6,32.9,29.97,NNE,22,0.0,0.0,39,0.00,,,0.00,meteohub,2013-06-08 07:01:00,
2013-06-08 03:06:00,57.4,32.7,29.97,East,90,0.0,0.0,39,0.00,,,0.00,meteohub,2013-06-08 07:06:00,
2013-06-08 03:11:00,57.4,32.7,29.97,ENE,68,0.0,0.0,39,0.00,,,0.00,meteohub,2013-06-08 07:11:00,
2013-06-08 03:17:00,57.4,32.7,29.97,ENE,68,0.0,0.0,39,0.00,,,0.00,meteohub,2013-06-08 07:17:00,
2013-06-08 03:22:00,57.4,32.7,29.97,ENE,68,0.0,0.0,39,0.00,,,0.00,meteohub,2013-06-08 07:22:00,
2013-06-08 03:27:00,57.4,32.7,29.94,ENE,68,0.0,0.0,39,0.00,,,0.00,meteohub,2013-06-08 07:27:00,
2013-06-08 03:32:00,57.4,33.3,29.94,ENE,68,0.0,0.0,40,0.00,,,0.00,meteohub,2013-06-08 07:32:00,
2013-06-08 03:39:00,57.2,33.1,29.94,ENE,68,0.0,0.0,40,0.00,,,0.00,meteohub,2013-06-08 07:39:00,
2013-06-08 03:44:00,57.2,33.1,29.97,ENE,68,0.0,0.0,40,0.00,,,0.00,meteohub,2013-06-08 07:44:00,
2013-06-08 03:49:00,57.2,33.1,29.97,WSW,248,0.0,0.0,40,0.00,,,0.00,meteohub,2013-06-08 07:49:00,
2013-06-08 03:55:00,57.2,33.1,29.97,NW,315,0.0,0.0,40,0.00,,,0.00,meteohub,2013-06-08 07:55:00,
2013-06-08 04:00:00,57.6,34.7,29.97,ENE,68,0.0,2.0,42,0.00,,,0.00,meteohub,2013-06-08 08:00:00,
2013-06-08 04:05:00,57.6,34.2,29.97,ENE,68,0.0,2.0,41,0.00,,,0.00,meteohub,2013-06-08 08:05:00,
2013-06-08 04:20:00,57.2,33.1,29.97,ENE,68,0.0,0.0,40,0.00,,,0.00,meteohub,2013-06-08 08:20:00,
2013-06-08 04:26:00,57.2,33.1,29.97,ENE,68,0.0,0.0,40,0.00,,,0.00,meteohub,2013-06-08 08:26:00,
2013-06-08 04:31:00,57.2,33.8,29.97,ENE,68,0.0,0.0,41,0.00,,,0.00,meteohub,2013-06-08 08:31:00,
2013-06-08 04:37:00,57.0,33.6,29.94,NNE,22,0.0,0.0,41,0.00,,,0.00,meteohub,2013-06-08 08:37:00,
2013-06-08 04:42:00,57.0,33.6,29.94,NE,45,0.0,0.0,41,0.00,,,0.00,meteohub,2013-06-08 08:42:00,
2013-06-08 04:47:00,57.0,34.2,29.94,ENE,68,0.0,0.0,42,0.00,,,0.00,meteohub,2013-06-08 08:47:00,
2013-06-08 05:16:00,57.4,36.3,29.97,WNW,292,2.0,2.0,45,0.00,,,0.00,meteohub,2013-06-08 09:16:00,
2013-06-08 05:21:00,57.6,35.8,29.97,NW,315,0.0,3.0,44,0.00,,,0.00,meteohub,2013-06-08 09:21:00,
2013-06-08 05:27:00,57.6,35.8,29.97,West,270,0.0,3.0,44,0.00,,,0.00,meteohub,2013-06-08 09:27:00,
2013-06-08 05:32:00,57.7,36.0,29.97,NE,45,0.0,3.0,44,0.00,,,0.00,meteohub,2013-06-08 09:32:00,
2013-06-08 05:37:00,57.7,35.4,29.97,NE,45,0.0,0.0,43,0.00,,,0.00,meteohub,2013-06-08 09:37:00,
2013-06-08 05:42:00,57.6,35.2,29.97,NNE,22,0.0,0.0,43,0.00,,,0.00,meteohub,2013-06-08 09:42:00,
2013-06-08 05:47:00,57.6,34.7,29.97,ENE,68,0.0,0.0,42,0.00,,,0.00,meteohub,2013-06-08 09:47:00,
2013-06-08 05:52:00,57.6,34.7,29.97,NNE,22,0.0,0.0,42,0.00,,,0.00,meteohub,2013-06-08 09:52:00,
2013-06-08 05:57:00,57.6,34.7,29.97,NE,45,0.0,0.0,42,0.00,,,0.00,meteohub,2013-06-08 09:57:00,
2013-06-08 06:03:00,57.6,34.7,29.97,NNW,338,0.0,0.0,42,0.00,,,0.00,meteohub,2013-06-08 10:03:00,
2013-06-08 06:08:00,57.6,35.2,29.97,NW,315,0.0,0.0,43,0.00,,,0.00,meteohub,2013-06-08 10:08:00,
2013-06-08 06:13:00,57.6,35.2,29.97,NW,315,0.0,0.0,43,0.00,,,0.00,meteohub,2013-06-08 10:13:00,
2013-06-08 06:18:00,57.6,35.2,29.97,NNW,338,0.0,0.0,43,0.00,,,0.00,meteohub,2013-06-08 10:18:00,
2013-06-08 06:23:00,57.6,35.2,29.97,WNW,292,0.0,0.0,43,0.00,,,0.00,meteohub,2013-06-08 10:23:00,
2013-06-08 06:28:00,57.6,35.8,29.97,NW,315,0.0,0.0,44,0.00,,,0.00,meteohub,2013-06-08 10:28:00,
2013-06-08 06:33:00,57.7,36.5,29.97,NW,315,0.0,0.0,45,0.00,,,0.00,meteohub,2013-06-08 10:33:00,
2013-06-08 06:38:00,57.7,36.5,29.97,NNE,22,0.0,1.0,45,0.00,,,0.00,meteohub,2013-06-08 10:38:00,
2013-06-08 06:44:00,57.7,36.0,30.00,NE,45,0.0,1.0,44,0.00,,,0.00,meteohub,2013-06-08 10:44:00,
2013-06-08 06:49:00,57.7,36.0,30.00,ENE,68,0.0,1.0,44,0.00,,,0.00,meteohub,2013-06-08 10:49:00,
2013-06-08 06:54:00,57.7,36.0,30.00,NE,45,0.0,1.0,44,0.00,,,0.00,meteohub,2013-06-08 10:54:00,
2013-06-08 07:00:00,57.7,36.0,30.00,NE,45,0.0,0.0,44,0.00,,,0.00,meteohub,2013-06-08 11:00:00,
2013-06-08 07:05:00,57.7,36.0,30.00,ESE,112,0.0,0.0,44,0.00,,,0.00,meteohub,2013-06-08 11:05:00,
2013-06-08 07:10:00,57.7,36.0,30.00,ESE,112,0.0,0.0,44,0.00,,,0.00,meteohub,2013-06-08 11:10:00,
2013-06-08 07:15:00,57.7,36.0,30.00,East,90,0.0,0.0,44,0.00,,,0.00,meteohub,2013-06-08 11:15:00,
2013-06-08 07:20:00,57.7,36.0,30.00,East,90,0.0,0.0,44,0.00,,,0.00,meteohub,2013-06-08 11:20:00,
2013-06-08 07:25:00,57.7,36.0,30.00,ENE,68,0.0,0.0,44,0.00,,,0.00,meteohub,2013-06-08 11:25:00,
2013-06-08 07:30:00,57.9,36.1,30.00,NE,45,0.0,0.0,44,0.00,,,0.00,meteohub,2013-06-08 11:30:00,
2013-06-08 07:35:00,57.9,36.1,30.00,NE,45,0.0,0.0,44,0.00,,,0.00,meteohub,2013-06-08 11:35:00,
2013-06-08 07:40:00,57.9,36.1,30.00,East,90,0.0,0.0,44,0.00,,,0.00,meteohub,2013-06-08 11:40:00,
2013-06-08 07:45:00,57.9,36.7,30.00,SE,135,0.0,0.0,45,0.00,,,0.00,meteohub,2013-06-08 11:45:00,
2013-06-08 07:51:00,58.1,36.3,30.00,ESE,112,0.0,0.0,44,0.00,,,0.00,meteohub,2013-06-08 11:51:00,
2013-06-08 07:56:00,58.1,36.3,30.00,ESE,112,0.0,0.0,44,0.00,,,0.00,meteohub,2013-06-08 11:56:00,
2013-06-08 08:01:00,58.3,37.0,30.00,ESE,112,0.0,0.0,45,0.00,,,0.00,meteohub,2013-06-08 12:01:00,
2013-06-08 08:06:00,58.5,37.2,30.00,East,90,0.0,0.0,45,0.00,,,0.00,meteohub,2013-06-08 12:06:00,
2013-06-08 08:12:00,58.6,37.4,30.00,ENE,68,0.0,0.0,45,0.00,,,0.00,meteohub,2013-06-08 12:12:00,
2013-06-08 08:17:00,58.8,37.6,30.00,ENE,68,0.0,0.0,45,0.00,,,0.00,meteohub,2013-06-08 12:17:00,
2013-06-08 08:22:00,59.2,36.7,30.00,NNE,22,0.0,0.0,43,0.00,,,0.00,meteohub,2013-06-08 12:22:00,
2013-06-08 08:27:00,59.2,36.7,30.06,NNW,338,0.0,4.0,43,0.00,,,0.00,meteohub,2013-06-08 12:27:00,
2013-06-08 08:32:00,59.4,36.3,30.06,ENE,68,0.0,4.0,42,0.00,,,0.00,meteohub,2013-06-08 12:32:00,
2013-06-08 08:37:00,59.5,36.5,30.06,ESE,112,0.0,3.0,42,0.00,,,0.00,meteohub,2013-06-08 12:37:00,
2013-06-08 08:43:00,59.7,36.0,30.03,East,90,0.0,3.0,41,0.00,,,0.00,meteohub,2013-06-08 12:43:00,
2013-06-08 08:48:00,59.7,35.4,30.03,ENE,68,0.0,2.0,40,0.00,,,0.00,meteohub,2013-06-08 12:48:00,
2013-06-08 08:53:00,60.1,35.8,30.03,NNE,22,0.0,2.0,40,0.00,,,0.00,meteohub,2013-06-08 12:53:00,
2013-06-08 08:58:00,60.4,36.0,30.03,North,0,0.0,2.0,40,0.00,,,0.00,meteohub,2013-06-08 12:58:00,
2013-06-08 09:05:00,60.8,35.1,30.03,ESE,112,0.0,0.0,38,0.00,,,0.00,meteohub,2013-06-08 13:05:00,
2013-06-08 09:11:00,61.0,35.2,30.03,WNW,292,0.0,0.0,38,0.00,,,0.00,meteohub,2013-06-08 13:11:00,
2013-06-08 09:16:00,61.3,34.9,30.03,NNE,22,0.0,3.0,37,0.00,,,0.00,meteohub,2013-06-08 13:16:00,
2013-06-08 09:21:00,61.5,35.1,30.03,NE,45,0.0,3.0,37,0.00,,,0.00,meteohub,2013-06-08 13:21:00,
2013-06-08 09:26:00,61.9,35.4,30.03,ENE,68,0.0,0.0,37,0.00,,,0.00,meteohub,2013-06-08 13:26:00,
2013-06-08 09:32:00,62.1,34.9,30.03,ENE,68,0.0,0.0,36,0.00,,,0.00,meteohub,2013-06-08 13:32:00,
2013-06-08 09:37:00,61.9,34.7,30.03,East,90,0.0,0.0,36,0.00,,,0.00,meteohub,2013-06-08 13:37:00,
2013-06-08 09:42:00,61.9,34.0,30.03,NE,45,0.0,0.0,35,0.00,,,0.00,meteohub,2013-06-08 13:42:00,
2013-06-08 09:47:00,62.1,34.2,30.03,NNE,22,0.0,0.0,35,0.00,,,0.00,meteohub,2013-06-08 13:47:00,
2013-06-08 09:52:00,61.9,33.3,30.03,ESE,112,0.0,0.0,34,0.00,,,0.00,meteohub,2013-06-08 13:52:00,
2013-06-08 09:57:00,61.7,30.7,30.03,ESE,112,0.0,0.0,31,0.00,,,0.00,meteohub,2013-06-08 13:57:00,
2013-06-08 10:02:00,62.1,33.4,30.03,East,90,0.0,0.0,34,0.00,,,0.00,meteohub,2013-06-08 14:02:00,
2013-06-08 10:07:00,62.2,32.9,30.03,East,90,0.0,0.0,33,0.00,,,0.00,meteohub,2013-06-08 14:07:00,
2013-06-08 10:12:00,62.4,32.9,30.03,ESE,112,0.0,0.0,33,0.00,,,0.00,meteohub,2013-06-08 14:12:00,
2013-06-08 10:17:00,62.8,33.3,30.03,WSW,248,1.0,0.0,33,0.00,,,0.00,meteohub,2013-06-08 14:17:00,
2013-06-08 10:22:00,62.6,30.7,30.03,South,180,0.0,4.0,30,0.00,,,0.00,meteohub,2013-06-08 14:22:00,
2013-06-08 10:27:00,62.4,30.6,30.00,WSW,248,0.0,4.0,30,0.00,,,0.00,meteohub,2013-06-08 14:27:00,
2013-06-08 10:32:00,62.4,31.5,30.00,ESE,112,0.0,4.0,31,0.00,,,0.00,meteohub,2013-06-08 14:32:00,
2013-06-08 10:37:00,62.4,30.6,30.00,SSW,202,0.0,1.0,30,0.00,,,0.00,meteohub,2013-06-08 14:37:00,
2013-06-08 10:42:00,62.6,32.4,30.00,ENE,68,0.0,0.0,32,0.00,,,0.00,meteohub,2013-06-08 14:42:00,
2013-06-08 10:47:00,62.6,32.4,30.00,ENE,68,0.0,0.0,32,0.00,,,0.00,meteohub,2013-06-08 14:47:00,
2013-06-08 10:52:00,62.4,32.2,30.00,ESE,112,0.0,0.0,32,0.00,,,0.00,meteohub,2013-06-08 14:52:00,
2013-06-08 10:57:00,62.4,32.2,30.03,ESE,112,0.0,0.0,32,0.00,,,0.00,meteohub,2013-06-08 14:57:00,
2013-06-08 11:03:00,62.6,33.1,30.03,WNW,292,0.0,0.0,33,0.00,,,0.00,meteohub,2013-06-08 15:03:00,
2013-06-08 11:08:00,62.6,29.1,30.03,ESE,112,3.0,0.0,28,0.00,,,0.00,meteohub,2013-06-08 15:08:00,
2013-06-08 11:13:00,62.6,29.1,30.03,SSE,158,0.0,0.0,28,0.00,,,0.00,meteohub,2013-06-08 15:13:00,
2013-06-08 11:19:00,63.1,31.3,30.03,ENE,68,0.0,3.0,30,0.00,,,0.00,meteohub,2013-06-08 15:19:00,
2013-06-08 11:24:00,63.3,31.5,30.03,WSW,248,0.0,3.0,30,0.00,,,0.00,meteohub,2013-06-08 15:24:00,
2013-06-08 11:29:00,63.9,31.8,30.03,NNE,22,0.0,2.0,30,0.00,,,0.00,meteohub,2013-06-08 15:29:00,
2013-06-08 11:34:00,64.0,29.5,30.03,ESE,112,2.0,0.0,27,0.00,,,0.00,meteohub,2013-06-08 15:34:00,
2013-06-08 11:39:00,63.9,29.3,30.03,WNW,292,0.0,3.0,27,0.00,,,0.00,meteohub,2013-06-08 15:39:00,
2013-06-08 11:44:00,64.4,30.6,30.03,NNE,22,0.0,3.0,28,0.00,,,0.00,meteohub,2013-06-08 15:44:00,
2013-06-08 11:49:00,65.1,32.2,30.03,NE,45,0.0,3.0,29,0.00,,,0.00,meteohub,2013-06-08 15:49:00,
2013-06-08 11:55:00,65.5,28.8,30.03,WNW,292,3.0,3.0,25,0.00,,,0.00,meteohub,2013-06-08 15:55:00,
2013-06-08 12:00:00,65.7,27.9,30.03,NW,315,1.0,3.0,24,0.00,,,0.00,meteohub,2013-06-08 16:00:00,
2013-06-08 12:05:00,65.7,27.9,30.03,WSW,248,0.0,3.0,24,0.00,,,0.00,meteohub,2013-06-08 16:05:00,
2013-06-08 12:10:00,65.5,27.9,30.03,WSW,248,0.0,3.0,24,0.00,,,0.00,meteohub,2013-06-08 16:10:00,
2013-06-08 12:15:00,65.8,28.0,30.06,WNW,292,0.0,0.0,24,0.00,,,0.00,meteohub,2013-06-08 16:15:00,
2013-06-08 12:20:00,65.8,27.1,30.06,WSW,248,2.0,3.0,23,0.00,,,0.00,meteohub,2013-06-08 16:20:00,
2013-06-08 12:25:00,65.7,27.0,30.06,West,270,0.0,3.0,23,0.00,,,0.00,meteohub,2013-06-08 16:25:00,
2013-06-08 12:31:00,65.8,27.1,30.06,WSW,248,3.0,3.0,23,0.00,,,0.00,meteohub,2013-06-08 16:31:00,
2013-06-08 12:36:00,66.0,27.1,30.06,WSW,248,2.0,5.0,23,0.00,,,0.00,meteohub,2013-06-08 16:36:00,
2013-06-08 12:41:00,65.5,26.8,30.06,SSW,202,0.0,5.0,23,0.00,,,0.00,meteohub,2013-06-08 16:41:00,
2013-06-08 12:46:00,65.7,27.0,30.03,WSW,248,0.0,5.0,23,0.00,,,0.00,meteohub,2013-06-08 16:46:00,
2013-06-08 12:52:00,66.0,27.1,30.03,WSW,248,2.0,4.0,23,0.00,,,0.00,meteohub,2013-06-08 16:52:00,
2013-06-08 12:57:00,66.2,27.3,30.03,ENE,68,0.0,4.0,23,0.00,,,0.00,meteohub,2013-06-08 16:57:00,
2013-06-08 13:02:00,66.9,28.0,30.03,WSW,248,0.0,4.0,23,0.00,,,0.00,meteohub,2013-06-08 17:02:00,
2013-06-08 13:07:00,67.5,28.4,30.03,ESE,112,0.0,4.0,23,0.00,,,0.00,meteohub,2013-06-08 17:07:00,
2013-06-08 13:12:00,67.8,28.8,30.03,WNW,292,2.0,4.0,23,0.00,,,0.00,meteohub,2013-06-08 17:12:00,
2013-06-08 13:17:00,68.2,27.9,30.03,SSW,202,0.0,3.0,22,0.00,,,0.00,meteohub,2013-06-08 17:17:00,
2013-06-08 13:22:00,68.5,28.2,30.03,SSW,202,4.0,4.0,22,0.00,,,0.00,meteohub,2013-06-08 17:22:00,
2013-06-08 13:27:00,68.7,26.1,30.06,WSW,248,3.0,4.0,20,0.00,,,0.00,meteohub,2013-06-08 17:27:00,
2013-06-08 13:33:00,68.4,25.9,30.06,SW,225,0.0,4.0,20,0.00,,,0.00,meteohub,2013-06-08 17:33:00,
2013-06-08 13:38:00,68.2,27.9,30.06,ENE,68,2.0,4.0,22,0.00,,,0.00,meteohub,2013-06-08 17:38:00,
2013-06-08 13:43:00,68.4,21.9,30.03,WSW,248,0.0,4.0,17,0.00,,,0.00,meteohub,2013-06-08 17:43:00,
2013-06-08 13:48:00,68.5,22.1,30.03,WSW,248,3.0,4.0,17,0.00,,,0.00,meteohub,2013-06-08 17:48:00,
2013-06-08 13:54:00,68.5,25.9,30.03,WSW,248,2.0,4.0,20,0.00,,,0.00,meteohub,2013-06-08 17:54:00,
2013-06-08 13:59:00,68.5,25.9,30.03,West,270,0.0,4.0,20,0.00,,,0.00,meteohub,2013-06-08 17:59:00,
2013-06-08 14:04:00,68.5,25.9,30.03,East,90,0.0,4.0,20,0.00,,,0.00,meteohub,2013-06-08 18:04:00,
2013-06-08 14:09:00,68.5,25.9,30.03,NNE,22,0.0,4.0,20,0.00,,,0.00,meteohub,2013-06-08 18:09:00,
2013-06-08 14:15:00,68.9,22.3,30.03,SSE,158,0.0,3.0,17,0.00,,,0.00,meteohub,2013-06-08 18:15:00,
2013-06-08 14:20:00,69.4,26.6,30.03,SSW,202,0.0,3.0,20,0.00,,,0.00,meteohub,2013-06-08 18:20:00,
2013-06-08 14:25:00,69.1,22.5,30.03,WSW,248,0.0,6.0,17,0.00,,,0.00,meteohub,2013-06-08 18:25:00,
2013-06-08 14:30:00,69.4,22.8,30.03,SSW,202,0.0,6.0,17,0.00,,,0.00,meteohub,2013-06-08 18:30:00,
2013-06-08 14:36:00,69.4,22.8,30.03,SSW,202,0.0,6.0,17,0.00,,,0.00,meteohub,2013-06-08 18:36:00,
2013-06-08 14:41:00,69.8,23.0,30.03,ESE,112,0.0,0.0,17,0.00,,,0.00,meteohub,2013-06-08 18:41:00,
2013-06-08 14:47:00,70.0,23.2,30.03,WNW,292,0.0,0.0,17,0.00,,,0.00,meteohub,2013-06-08 18:47:00,
2013-06-08 14:52:00,69.6,23.0,30.03,WSW,248,0.0,0.0,17,0.00,,,0.00,meteohub,2013-06-08 18:52:00,
2013-06-08 14:57:00,69.4,22.8,30.03,West,270,0.0,0.0,17,0.00,,,0.00,meteohub,2013-06-08 18:57:00,
2013-06-08 15:02:00,69.6,23.0,30.03,WSW,248,0.0,0.0,17,0.00,,,0.00,meteohub,2013-06-08 19:02:00,
2013-06-08 15:07:00,70.2,23.4,30.03,ESE,112,0.0,0.0,17,0.00,,,0.00,meteohub,2013-06-08 19:07:00,
2013-06-08 15:12:00,71.8,23.2,30.03,West,270,0.0,0.0,16,0.00,,,0.00,meteohub,2013-06-08 19:12:00,
2013-06-08 15:18:00,72.5,23.9,30.03,ENE,68,0.0,0.0,16,0.00,,,0.00,meteohub,2013-06-08 19:18:00,
2013-06-08 15:23:00,72.7,23.9,30.03,NNW,338,0.0,0.0,16,0.00,,,0.00,meteohub,2013-06-08 19:23:00,
2013-06-08 15:28:00,73.2,24.4,30.03,ENE,68,0.0,0.0,16,0.00,,,0.00,meteohub,2013-06-08 19:28:00,
2013-06-08 15:33:00,73.6,24.6,30.03,WNW,292,2.0,0.0,16,0.00,,,0.00,meteohub,2013-06-08 19:33:00,
2013-06-08 15:38:00,73.0,24.3,30.03,West,270,0.0,3.0,16,0.00,,,0.00,meteohub,2013-06-08 19:38:00,
2013-06-08 15:43:00,72.9,24.1,30.03,WNW,292,0.0,4.0,16,0.00,,,0.00,meteohub,2013-06-08 19:43:00,
2013-06-08 15:49:00,72.7,23.9,30.03,WNW,292,0.0,4.0,16,0.00,,,0.00,meteohub,2013-06-08 19:49:00,
2013-06-08 15:54:00,72.3,20.5,30.03,WNW,292,0.0,4.0,14,0.00,,,0.00,meteohub,2013-06-08 19:54:00,
2013-06-08 15:59:00,72.3,20.5,30.03,East,90,0.0,4.0,14,0.00,,,0.00,meteohub,2013-06-08 19:59:00,
2013-06-08 16:04:00,72.5,23.9,30.03,NNW,338,0.0,4.0,16,0.00,,,0.00,meteohub,2013-06-08 20:04:00,
2013-06-08 16:10:00,72.0,23.4,30.03,NNE,22,0.0,3.0,16,0.00,,,0.00,meteohub,2013-06-08 20:10:00,
2013-06-08 16:15:00,71.8,23.2,30.03,WSW,248,0.0,3.0,16,0.00,,,0.00,meteohub,2013-06-08 20:15:00,
2013-06-08 16:20:00,72.9,24.1,30.03,WNW,292,0.0,3.0,16,0.00,,,0.00,meteohub,2013-06-08 20:20:00,
2013-06-08 16:25:00,72.9,21.0,30.03,SSE,158,2.0,2.0,14,0.00,,,0.00,meteohub,2013-06-08 20:25:00,
2013-06-08 16:31:00,73.4,24.6,30.03,NW,315,0.0,4.0,16,0.00,,,0.00,meteohub,2013-06-08 20:31:00,
2013-06-08 16:36:00,73.0,21.0,30.03,SSW,202,1.0,4.0,14,0.00,,,0.00,meteohub,2013-06-08 20:36:00,
2013-06-08 16:41:00,73.2,21.2,30.03,East,90,0.0,4.0,14,0.00,,,0.00,meteohub,2013-06-08 20:41:00,
2013-06-08 16:46:00,73.0,21.0,30.03,East,90,0.0,4.0,14,0.00,,,0.00,meteohub,2013-06-08 20:46:00,
2013-06-08 16:52:00,73.0,21.0,30.03,ENE,68,1.0,3.0,14,0.00,,,0.00,meteohub,2013-06-08 20:52:00,
2013-06-08 16:57:00,73.0,21.0,30.03,NNE,22,0.0,3.0,14,0.00,,,0.00,meteohub,2013-06-08 20:57:00,
2013-06-08 17:02:00,73.0,21.0,30.03,NNW,338,0.0,3.0,14,0.00,,,0.00,meteohub,2013-06-08 21:02:00,
2013-06-08 17:07:00,73.0,24.3,30.03,ENE,68,0.0,3.0,16,0.00,,,0.00,meteohub,2013-06-08 21:07:00,
2013-06-08 17:12:00,72.9,24.1,30.03,SSE,158,0.0,0.0,16,0.00,,,0.00,meteohub,2013-06-08 21:12:00,
2013-06-08 17:17:00,73.4,24.6,30.03,East,90,0.0,0.0,16,0.00,,,0.00,meteohub,2013-06-08 21:17:00,
2013-06-08 17:22:00,73.4,24.6,30.03,ENE,68,0.0,0.0,16,0.00,,,0.00,meteohub,2013-06-08 21:22:00,
2013-06-08 17:27:00,73.4,19.6,30.03,SSE,158,3.0,0.0,13,0.00,,,0.00,meteohub,2013-06-08 21:27:00,
2013-06-08 17:32:00,73.0,21.0,30.06,ENE,68,3.0,5.0,14,0.00,,,0.00,meteohub,2013-06-08 21:32:00,
2013-06-08 17:37:00,73.0,21.0,30.06,NE,45,0.0,5.0,14,0.00,,,0.00,meteohub,2013-06-08 21:37:00,
2013-06-08 17:42:00,73.0,21.0,30.03,ESE,112,2.0,3.0,14,0.00,,,0.00,meteohub,2013-06-08 21:42:00,
2013-06-08 17:47:00,72.5,20.7,30.03,NW,315,0.0,4.0,14,0.00,,,0.00,meteohub,2013-06-08 21:47:00,
2013-06-08 17:52:00,73.2,21.2,30.03,ESE,112,0.0,4.0,14,0.00,,,0.00,meteohub,2013-06-08 21:52:00,
2013-06-08 17:57:00,73.2,24.4,30.03,SE,135,0.0,4.0,16,0.00,,,0.00,meteohub,2013-06-08 21:57:00,
2013-06-08 18:03:00,73.0,24.3,30.03,SSW,202,0.0,0.0,16,0.00,,,0.00,meteohub,2013-06-08 22:03:00,
2013-06-08 18:08:00,72.7,20.8,30.03,SSW,202,0.0,0.0,14,0.00,,,0.00,meteohub,2013-06-08 22:08:00,
2013-06-08 18:13:00,73.0,24.3,30.00,WNW,292,0.0,0.0,16,0.00,,,0.00,meteohub,2013-06-08 22:13:00,
2013-06-08 18:18:00,73.6,24.6,30.00,WNW,292,0.0,0.0,16,0.00,,,0.00,meteohub,2013-06-08 22:18:00,
2013-06-08 18:23:00,73.8,24.8,30.00,WNW,292,0.0,0.0,16,0.00,,,0.00,meteohub,2013-06-08 22:23:00,
2013-06-08 18:28:00,75.0,20.8,30.00,SW,225,0.0,0.0,13,0.00,,,0.00,meteohub,2013-06-08 22:28:00,
2013-06-08 18:34:00,75.2,21.0,30.00,WSW,248,0.0,4.0,13,0.00,,,0.00,meteohub,2013-06-08 22:34:00,
2013-06-08 18:39:00,74.8,20.8,30.00,West,270,0.0,4.0,13,0.00,,,0.00,meteohub,2013-06-08 22:39:00,
2013-06-08 18:44:00,73.4,19.6,30.00,West,270,3.0,4.0,13,0.00,,,0.00,meteohub,2013-06-08 22:44:00,
2013-06-08 18:49:00,72.3,20.5,30.00,West,270,2.0,4.0,14,0.00,,,0.00,meteohub,2013-06-08 22:49:00,
2013-06-08 18:55:00,72.5,20.7,30.00,SSW,202,0.0,6.0,14,0.00,,,0.00,meteohub,2013-06-08 22:55:00,
2013-06-08 19:00:00,72.5,20.7,30.03,West,270,2.0,6.0,14,0.00,,,0.00,meteohub,2013-06-08 23:00:00,
2013-06-08 19:05:00,72.3,20.5,30.03,ESE,112,0.0,4.0,14,0.00,,,0.00,meteohub,2013-06-08 23:05:00,
2013-06-08 19:10:00,72.0,20.3,30.03,South,180,0.0,2.0,14,0.00,,,0.00,meteohub,2013-06-08 23:10:00,
2013-06-08 19:15:00,71.8,20.1,30.03,ESE,112,0.0,2.0,14,0.00,,,0.00,meteohub,2013-06-08 23:15:00,
2013-06-08 19:20:00,71.1,19.6,30.03,ESE,112,0.0,0.0,14,0.00,,,0.00,meteohub,2013-06-08 23:20:00,
2013-06-08 19:26:00,70.9,19.4,30.03,ESE,112,0.0,0.0,14,0.00,,,0.00,meteohub,2013-06-08 23:26:00,
2013-06-08 19:31:00,70.5,19.0,30.03,East,90,0.0,0.0,14,0.00,,,0.00,meteohub,2013-06-08 23:31:00,
2013-06-08 19:36:00,70.2,18.9,30.03,East,90,0.0,0.0,14,0.00,,,0.00,meteohub,2013-06-08 23:36:00,
2013-06-08 19:41:00,70.0,18.7,30.03,ENE,68,0.0,0.0,14,0.00,,,0.00,meteohub,2013-06-08 23:41:00,
2013-06-08 19:46:00,69.8,23.0,30.03,ESE,112,0.0,0.0,17,0.00,,,0.00,meteohub,2013-06-08 23:46:00,
2013-06-08 19:52:00,69.4,22.8,30.03,SE,135,0.0,0.0,17,0.00,,,0.00,meteohub,2013-06-08 23:52:00,
2013-06-08 19:57:00,69.4,22.8,30.06,SE,135,0.0,0.0,17,0.00,,,0.00,meteohub,2013-06-08 23:57:00,
2013-06-08 20:02:00,69.3,22.6,30.06,ESE,112,0.0,0.0,17,0.00,,,0.00,meteohub,2013-06-09 00:02:00,
2013-06-08 20:07:00,69.3,22.6,30.06,ESE,112,0.0,0.0,17,0.00,,,0.00,meteohub,2013-06-09 00:07:00,
2013-06-08 20:12:00,69.1,22.5,30.06,ESE,112,0.0,0.0,17,0.00,,,0.00,meteohub,2013-06-09 00:12:00,
2013-06-08 20:17:00,68.9,22.3,30.06,SSE,158,0.0,0.0,17,0.00,,,0.00,meteohub,2013-06-09 00:17:00,
2013-06-08 20:22:00,68.7,22.3,30.06,SE,135,0.0,0.0,17,0.00,,,0.00,meteohub,2013-06-09 00:22:00,
2013-06-08 20:27:00,68.7,22.3,30.06,ESE,112,0.0,0.0,17,0.00,,,0.00,meteohub,2013-06-09 00:27:00,
2013-06-08 20:33:00,68.4,21.9,30.06,ESE,112,0.0,0.0,17,0.00,,,0.00,meteohub,2013-06-09 00:33:00,
2013-06-08 20:38:00,68.2,21.7,30.06,ESE,112,0.0,0.0,17,0.00,,,0.00,meteohub,2013-06-09 00:38:00,
2013-06-08 20:43:00,68.0,21.6,30.06,ESE,112,0.0,0.0,17,0.00,,,0.00,meteohub,2013-06-09 00:43:00,
2013-06-08 20:48:00,67.5,21.2,30.06,ESE,112,0.0,0.0,17,0.00,,,0.00,meteohub,2013-06-09 00:48:00,
2013-06-08 20:53:00,67.1,20.8,30.06,ESE,112,0.0,0.0,17,0.00,,,0.00,meteohub,2013-06-09 00:53:00,
2013-06-08 20:58:00,66.9,20.8,30.06,ESE,112,0.0,0.0,17,0.00,,,0.00,meteohub,2013-06-09 00:58:00,
2013-06-08 21:03:00,66.6,24.3,30.06,ESE,112,0.0,0.0,20,0.00,,,0.00,meteohub,2013-06-09 01:03:00,
2013-06-08 21:08:00,66.2,24.1,30.06,ESE,112,0.0,0.0,20,0.00,,,0.00,meteohub,2013-06-09 01:08:00,
2013-06-08 21:14:00,66.2,24.1,30.06,ESE,112,0.0,0.0,20,0.00,,,0.00,meteohub,2013-06-09 01:14:00,
2013-06-08 21:19:00,65.8,23.7,30.06,ESE,112,0.0,0.0,20,0.00,,,0.00,meteohub,2013-06-09 01:19:00,
2013-06-08 21:24:00,65.5,23.4,30.06,ESE,112,0.0,0.0,20,0.00,,,0.00,meteohub,2013-06-09 01:24:00,
2013-06-08 21:29:00,65.3,26.6,30.06,ESE,112,0.0,0.0,23,0.00,,,0.00,meteohub,2013-06-09 01:29:00,
2013-06-08 21:34:00,65.1,26.4,30.06,ESE,112,0.0,0.0,23,0.00,,,0.00,meteohub,2013-06-09 01:34:00,
2013-06-08 21:39:00,64.8,26.2,30.06,ESE,112,0.0,0.0,23,0.00,,,0.00,meteohub,2013-06-09 01:39:00,
2013-06-08 21:44:00,64.4,25.9,30.09,ESE,112,0.0,0.0,23,0.00,,,0.00,meteohub,2013-06-09 01:44:00,
2013-06-08 21:50:00,64.0,26.6,30.09,ESE,112,0.0,0.0,24,0.00,,,0.00,meteohub,2013-06-09 01:50:00,
2013-06-08 21:55:00,63.9,26.4,30.09,ESE,112,0.0,0.0,24,0.00,,,0.00,meteohub,2013-06-09 01:55:00,
2013-06-08 22:00:00,63.3,25.9,30.09,ESE,112,0.0,0.0,24,0.00,,,0.00,meteohub,2013-06-09 02:00:00,
2013-06-08 22:05:00,63.0,26.6,30.09,ESE,112,0.0,0.0,25,0.00,,,0.00,meteohub,2013-06-09 02:05:00,
2013-06-08 22:10:00,63.0,27.7,30.09,ESE,112,0.0,0.0,26,0.00,,,0.00,meteohub,2013-06-09 02:10:00,
2013-06-08 22:15:00,62.8,27.5,30.09,ESE,112,0.0,0.0,26,0.00,,,0.00,meteohub,2013-06-09 02:15:00,
2013-06-08 22:20:00,62.4,28.9,30.09,ESE,112,0.0,0.0,28,0.00,,,0.00,meteohub,2013-06-09 02:20:00,
2013-06-08 22:25:00,62.4,28.0,30.09,ESE,112,0.0,0.0,27,0.00,,,0.00,meteohub,2013-06-09 02:25:00,
2013-06-08 22:30:00,62.1,27.7,30.09,ESE,112,0.0,0.0,27,0.00,,,0.00,meteohub,2013-06-09 02:30:00,
2013-06-08 22:36:00,61.9,28.4,30.09,ESE,112,0.0,0.0,28,0.00,,,0.00,meteohub,2013-06-09 02:36:00,
2013-06-08 22:41:00,61.7,29.1,30.09,ESE,112,0.0,0.0,29,0.00,,,0.00,meteohub,2013-06-09 02:41:00,
2013-06-08 22:46:00,61.5,29.8,30.09,ESE,112,0.0,0.0,30,0.00,,,0.00,meteohub,2013-06-09 02:46:00,
2013-06-08 22:51:00,61.5,32.9,30.09,ESE,112,0.0,0.0,34,0.00,,,0.00,meteohub,2013-06-09 02:51:00,
2013-06-08 22:56:00,61.3,32.7,30.09,ESE,112,0.0,0.0,34,0.00,,,0.00,meteohub,2013-06-09 02:56:00,
2013-06-08 23:01:00,61.2,32.5,30.06,ESE,112,0.0,0.0,34,0.00,,,0.00,meteohub,2013-06-09 03:01:00,
2013-06-08 23:06:00,61.0,33.8,30.06,ESE,112,0.0,0.0,36,0.00,,,0.00,meteohub,2013-06-09 03:06:00,
2013-06-08 23:12:00,61.0,33.8,30.06,ESE,112,0.0,0.0,36,0.00,,,0.00,meteohub,2013-06-09 03:12:00,
2013-06-08 23:17:00,60.8,33.8,30.09,ESE,112,0.0,0.0,36,0.00,,,0.00,meteohub,2013-06-09 03:17:00,
2013-06-08 23:22:00,60.6,33.6,30.09,ESE,112,0.0,0.0,36,0.00,,,0.00,meteohub,2013-06-09 03:22:00,
2013-06-08 23:27:00,60.6,34.2,30.09,ESE,112,0.0,0.0,37,0.00,,,0.00,meteohub,2013-06-09 03:27:00,
2013-06-08 23:32:00,60.4,33.4,30.09,ESE,112,0.0,0.0,36,0.00,,,0.00,meteohub,2013-06-09 03:32:00,
2013-06-08 23:37:00,60.3,33.3,30.09,ESE,112,0.0,0.0,36,0.00,,,0.00,meteohub,2013-06-09 03:37:00,
2013-06-08 23:42:00,60.1,33.1,30.09,ESE,112,0.0,0.0,36,0.00,,,0.00,meteohub,2013-06-09 03:42:00,
2013-06-08 23:48:00,60.1,33.1,30.09,East,90,0.0,0.0,36,0.00,,,0.00,meteohub,2013-06-09 03:48:00,
2013-06-08 23:53:00,60.1,33.1,30.09,East,90,0.0,0.0,36,0.00,,,0.00,meteohub,2013-06-09 03:53:00,
2013-06-08 23:58:00,60.3,34.0,30.09,East,90,0.0,0.0,37,0.00,,,0.00,meteohub,2013-06-09 03:58:00,